Latest Weather Observations for Thredbo Top Station

IDN60801

Issued at 3:32 pm EST Tuesday 26 September 2017 (issued every 30 minutes, with the page automatically refreshed every 10 minutes)

About weather observations | Map of weather stations | Latest weather observations for NSW | Other Formats
Station Details ID: 071032 Name: THREDBO AWS Lat: -36.49 Lon: 148.29 Height: 1957.0 m
Data from the previous 72 hours. | See also: Recent months at Thredbo Top Station
Date/Time
EST
Temp
°C
App
Temp
°C
Dew
Point
°C
Rel
Hum
%
Delta-T
°C
Wind Press
QNH
hPa
Press
MSL
hPa
Rain since
9am
mm
Dir  Spd
km/h
Gust
km/h
Spd
kts
Gust
kts
26/03:30pm 1.7 -6.7 -2.4 74 1.6 NW 32 41 17 22 1015.7 1016.7 1.0
26/03:00pm 1.8 -6.6 -2.1 75 1.6 NW 32 39 17 21 1015.9 1016.9 1.0
26/02:30pm 1.8 -6.6 -2.5 73 1.7 NW 32 39 17 21 1015.9 1016.9 1.0
26/02:00pm 1.8 -5.8 -2.3 74 1.6 NW 28 39 15 21 1015.9 1016.9 1.0
26/01:30pm 1.5 -6.1 -2.3 76 1.6 NW 28 37 15 20 1015.7 1016.7 1.0
26/01:00pm 1.7 -5.7 -3.4 69 2.1 WNW 26 33 14 18 1015.9 1016.9 1.0
26/12:30pm 1.7 -5.4 -4.2 65 2.3 NW 24 32 13 17 1015.9 1016.9 1.0
26/12:00pm 1.5 -6.5 -6.1 57 2.8 NW 28 37 15 20 1015.7 1016.7 1.0
26/11:30am 1.3 -6.4 -6.3 57 2.8 WNW 26 35 14 19 1015.7 1016.7 1.0
26/11:00am 1.4 -6.8 -8.1 49 3.3 WNW 28 37 15 20 1015.9 1016.9 0.2
26/10:30am 0.9 -7.7 -8.1 51 3.1 WNW 30 44 16 24 1015.7 1016.7 0.2
26/10:00am 0.7 -8.0 -9.3 47 3.3 WNW 30 41 16 22 1015.6 1016.6 0.0
26/09:30am 0.5 -8.5 -8.7 50 3.1 WNW 32 39 17 21 1015.4 1016.4 0.0
26/09:00am 0.0 -9.2 -8.9 51 2.9 WNW 33 48 18 26 1015.3 1016.2 1.6
26/08:30am -0.6 -10.1 -8.0 57 2.4 WNW 35 48 19 26 1014.9 1015.9 1.2
26/08:00am -1.3 -10.8 -7.4 63 2.0 WNW 35 46 19 25 1014.4 1015.3 0.6
26/07:30am -1.4 -10.5 -7.5 63 2.0 WNW 33 43 18 23 1014.3 1015.2 0.6
26/07:00am -1.7 -11.9 -7.0 67 1.7 NW 39 54 21 29 - - 0.6
26/06:30am -2.1 -12.4 -7.4 67 1.7 WNW 39 52 21 28 - - 0.6
26/06:20am -1.8 -12.8 -6.9 68 1.6 NW 43 65 23 35 - - 0.6
26/06:00am -1.7 -13.0 -8.2 61 2.1 NW 44 56 24 30 - - 0.6
26/05:30am -2.6 -12.5 -7.5 69 1.5 WNW 37 46 20 25 - - 0.6
26/05:00am -2.8 -13.2 -8.6 64 1.7 WNW 39 52 21 28 - - 0.6
26/04:30am -3.1 -13.8 -8.2 68 1.5 NW 41 54 22 29 - - 0.6
26/04:00am -3.4 -14.7 -8.1 70 1.4 NW 44 57 24 31 - - 0.6
26/03:30am -3.2 -14.3 -9.0 64 1.7 NW 43 56 23 30 - - 0.6
26/03:00am -3.3 -14.4 -8.5 67 1.5 NW 43 50 23 27 - - 0.6
26/02:30am -3.1 -13.4 -8.5 66 1.6 NW 39 54 21 29 - - 0.6
26/02:00am -2.6 -13.7 -8.4 64 1.8 NW 43 57 23 31 - - 0.6
26/01:30am -2.4 -15.2 -8.1 65 1.8 NW 52 63 28 34 - - 0.6
26/01:00am -2.3 -14.0 -8.2 64 1.8 NW 46 67 25 36 - - 0.6
26/12:42am -2.1 -12.4 -8.0 64 1.8 NW 39 61 21 33 - - 0.6
26/12:30am -2.2 -12.9 -8.1 64 1.8 NW 41 56 22 30 - - 0.6
26/12:14am -2.1 -11.7 -8.2 63 1.9 WNW 35 54 19 29 - - 0.6
26/12:00am -2.1 -12.4 -8.2 63 1.9 WNW 39 52 21 28 - - 0.6
 
Date/Time
EST
Temp
°C
App
Temp
°C
Dew
Point
°C
Rel
Hum
%
Delta-T
°C
Wind Press
QNH
hPa
Press
MSL
hPa
Rain since
9am
mm
Dir  Spd
km/h
Gust
km/h
Spd
kts
Gust
kts
25/11:35pm -2.1 -13.2 -8.2 63 1.9 WNW 43 61 23 33 - - 0.6
25/11:30pm -2.0 -13.1 -7.9 64 1.9 NW 43 59 23 32 - - 0.6
25/11:17pm -2.0 -12.3 -8.1 63 1.9 WNW 39 57 21 31 - - 0.6
25/11:00pm -1.9 -12.9 -7.8 64 1.9 WNW 43 56 23 30 - - 0.6
25/10:30pm -1.6 -11.9 -7.5 64 1.9 WNW 39 57 21 31 - - 0.6
25/10:00pm -1.6 -11.1 -7.5 64 1.9 WNW 35 57 19 31 - - 0.6
25/09:42pm -1.5 -10.0 -7.4 64 1.9 W 30 50 16 27 - - 0.6
25/09:30pm -1.5 -10.4 -7.6 63 2.0 WNW 32 43 17 23 - - 0.6
25/09:22pm -1.3 -11.5 -7.2 64 1.9 WNW 39 57 21 31 - - 0.6
25/09:10pm -1.3 -11.1 -7.0 65 1.9 WNW 37 48 20 26 - - 0.6
25/09:00pm -1.3 -10.2 -7.0 65 1.9 W 32 44 17 24 - - 0.6
25/08:34pm -1.0 -9.1 -6.5 66 1.9 W 28 48 15 26 - - 0.6
25/08:30pm -1.1 -8.8 -6.6 66 1.8 W 26 48 14 26 - - 0.6
25/08:00pm -1.0 -9.5 -6.5 66 1.9 WNW 30 46 16 25 - - 0.6
25/07:56pm -1.1 -9.2 -6.6 66 1.8 W 28 46 15 25 - - 0.6
25/07:30pm -1.3 -10.4 -6.8 66 1.8 W 33 44 18 24 - - 0.6
25/07:15pm -1.0 -9.8 -6.3 67 1.8 W 32 50 17 27 - - 0.6
25/07:00pm -0.7 -10.4 -6.0 67 1.8 WNW 37 52 20 28 - - 0.6
25/06:35pm -1.3 -10.7 -6.4 68 1.7 WNW 35 54 19 29 - - 0.6
25/06:30pm -1.2 -11.3 -6.3 68 1.7 WNW 39 54 21 29 - - 0.6
25/06:14pm -0.8 -9.8 -5.9 68 1.8 WNW 33 54 18 29 - - 0.6
25/06:00pm -0.7 -8.3 -5.9 68 1.8 WNW 26 39 14 21 - - 0.6
25/05:30pm -0.6 -9.6 -5.8 68 1.8 WNW 33 46 18 25 - - 0.6
25/05:15pm -0.7 -9.5 -5.9 68 1.8 WNW 32 52 17 28 - - 0.6
25/05:00pm -0.6 -7.5 -5.8 68 1.8 W 22 32 12 17 - - 0.6
25/04:44pm -0.4 -10.1 -5.4 69 1.8 WNW 37 57 20 31 - - 0.6
25/04:30pm -0.6 -11.6 -5.4 70 1.7 NW 44 67 24 36 - - 0.6
25/04:01pm -0.7 -11.7 -5.5 70 1.7 NW 44 82 24 44 - - 0.6
25/04:00pm -0.7 -11.5 -5.5 70 1.7 NW 43 63 23 34 - - 0.6
25/03:30pm -0.6 -11.6 -5.6 69 1.8 NW 44 63 24 34 - - 0.6
25/03:00pm -0.7 -12.5 -5.3 71 1.6 WNW 48 74 26 40 - - 0.6
25/02:30pm -0.8 -11.6 -5.2 72 1.5 NW 43 67 23 36 - - 0.6
25/02:12pm -1.0 -11.8 -5.4 72 1.5 NW 43 65 23 35 - - 0.6
25/02:07pm -1.0 -11.8 -5.4 72 1.5 NW 43 59 23 32 - - 0.6
25/02:00pm -1.0 -14.9 -5.4 72 1.5 NW 59 83 32 45 - - 0.6
25/01:38pm -1.0 -14.3 -5.4 72 1.5 NW 56 80 30 43 - - 0.6
25/01:36pm -0.9 -13.8 -5.1 73 1.5 NW 54 80 29 43 - - 0.6
25/01:30pm -1.0 -12.4 -5.4 72 1.5 NW 46 69 25 37 - - 0.6
25/01:00pm -1.0 -13.5 -5.2 73 1.5 NW 52 74 28 40 - - 0.6
25/12:30pm -0.8 -11.6 -5.0 73 1.5 WNW 43 61 23 33 - - 0.6
25/12:28pm -0.8 -11.6 -5.0 73 1.5 WNW 43 61 23 33 - - 0.6
25/12:00pm -0.7 -10.7 -4.9 73 1.5 NW 39 56 21 30 - - 0.6
25/11:30am -0.8 -12.9 -4.8 74 1.4 NW 50 78 27 42 - - 0.4
25/11:00am -0.9 -11.9 -5.1 73 1.5 NW 44 63 24 34 - - 0.0
25/10:30am -1.2 -12.9 -5.0 75 1.3 NW 48 67 26 36 - - 0.0
25/10:00am -1.2 -12.2 -4.9 76 1.3 NW 44 69 24 37 - - 0.0
25/09:44am -1.3 -12.3 -5.3 74 1.4 NW 44 63 24 34 - - 0.0
25/09:30am -1.3 -12.3 -5.3 74 1.4 NW 44 57 24 31 - - 0.0
25/09:00am -1.5 -12.3 -5.0 77 1.2 NW 43 61 23 33 - - 0.0
25/08:36am -1.5 -12.4 -4.8 78 1.1 NW 44 63 24 34 - - 0.0
25/08:30am -1.4 -12.1 -4.7 78 1.1 NW 43 57 23 31 - - 0.0
25/08:06am -1.5 -12.4 -4.7 79 1.1 NW 44 63 24 34 - - 0.0
25/08:00am -1.2 -12.1 -4.4 79 1.1 NW 44 61 24 33 - - 0.0
25/07:30am -1.4 -12.1 -4.6 79 1.1 NW 43 59 23 32 - - 0.0
25/07:05am -1.5 -11.8 -4.3 81 0.9 NW 41 61 22 33 - - 0.0
25/07:00am -1.3 -10.8 -4.1 81 1.0 NW 37 54 20 29 - - 0.0
25/06:30am -1.4 -10.2 -3.9 83 0.9 NW 33 52 18 28 - - 0.0
25/06:00am -1.4 -11.3 -3.7 84 0.8 NW 39 61 21 33 - - 0.0
25/05:33am -1.4 -10.9 -3.4 86 0.7 NW 37 56 20 30 - - 0.0
25/05:30am -1.3 -11.1 -3.3 86 0.7 WNW 39 56 21 30 - - 0.0
25/05:00am -1.4 -11.2 -3.0 89 0.5 NW 39 57 21 31 - - 0.0
25/04:30am -1.3 -11.8 -2.4 92 0.4 NW 43 63 23 34 - - 0.0
25/04:00am -1.3 -11.0 -2.1 94 0.2 NW 39 63 21 34 - - 0.0
25/03:30am -1.1 -11.6 -2.5 90 0.5 NW 43 61 23 33 - - 0.0
25/03:00am -0.6 -11.1 -2.6 86 0.7 WNW 43 67 23 36 - - 0.0
25/02:30am -0.4 -11.8 -2.3 87 0.7 WNW 48 70 26 38 - - 0.0
25/02:01am -0.2 -11.6 -1.9 88 0.7 WNW 48 67 26 36 - - 0.0
25/02:00am -0.1 -11.9 -2.0 87 0.7 WNW 50 67 27 36 - - 0.0
25/01:30am 0.1 -10.3 -1.8 87 0.8 WNW 43 61 23 33 - - 0.0
25/01:00am 0.3 -10.7 -1.8 86 0.8 WNW 46 76 25 41 - - 0.0
25/12:30am 0.6 -11.5 -1.8 84 1.0 WNW 52 82 28 44 - - 0.0
25/12:00am 0.6 -10.4 -1.8 84 1.0 WNW 46 65 25 35 - - 0.0
 
Date/Time
EST
Temp
°C
App
Temp
°C
Dew
Point
°C
Rel
Hum
%
Delta-T
°C
Wind Press
QNH
hPa
Press
MSL
hPa
Rain since
9am
mm
Dir  Spd
km/h
Gust
km/h
Spd
kts
Gust
kts
24/11:30pm 0.8 -11.7 -1.8 83 1.1 WNW 54 82 29 44 - - 0.0
24/11:00pm 0.8 -11.3 -1.9 82 1.1 WNW 52 78 28 42 - - 0.0
24/10:30pm 0.7 -11.1 -2.0 82 1.1 WNW 50 80 27 43 - - 0.0
24/10:00pm 0.9 -10.5 -1.8 82 1.1 WNW 48 78 26 42 - - 0.0
24/09:30pm 1.0 -11.1 -1.7 82 1.1 WNW 52 80 28 43 - - 0.0
24/09:00pm 1.1 -12.0 -2.0 80 1.3 WNW 57 80 31 43 - - 0.0
24/08:30pm 1.1 -11.8 -2.1 79 1.3 WNW 56 76 30 41 - - 0.0
24/08:00pm 1.2 -11.3 -1.5 82 1.1 WNW 54 78 29 42 - - 0.0
24/07:30pm 1.4 -12.4 -1.3 82 1.1 WNW 61 83 33 45 - - 0.0
24/07:00pm 1.6 -10.8 -1.3 81 1.2 WNW 54 74 29 40 - - 0.0
24/06:30pm 1.9 -11.2 -1.9 76 1.5 WNW 57 85 31 46 - - 0.0
24/06:19pm 1.9 -11.2 -1.9 76 1.5 WNW 57 82 31 44 - - 0.0
24/06:15pm 2.2 -10.8 -1.6 76 1.5 WNW 57 82 31 44 - - 0.0
24/06:03pm 2.1 -9.2 -1.7 76 1.5 NW 48 69 26 37 - - 0.0
24/06:00pm 2.0 -8.9 -1.4 78 1.4 NW 46 61 25 33 - - 0.0
24/05:30pm 2.2 -10.7 -1.8 75 1.6 WNW 56 85 30 46 - - 0.0
24/05:00pm 2.3 -8.5 -0.8 80 1.3 NW 46 70 25 38 - - 0.0
24/04:30pm 2.3 -9.3 -1.1 78 1.4 NW 50 70 27 38 - - 0.0
24/04:00pm 2.2 -9.8 -1.1 79 1.4 NW 52 74 28 40 - - 0.0
24/03:30pm 2.2 -11.4 -0.5 82 1.1 NW 61 82 33 44 - - 0.0
24/03:00pm 2.1 -12.4 -1.0 80 1.3 NW 65 95 35 51 - - 0.0
24/02:30pm 1.7 -11.0 -0.5 85 0.9 NW 56 80 30 43 - - 0.0
24/02:00pm 1.6 -11.1 -0.8 84 1.0 NW 56 89 30 48 - - 0.0
24/01:30pm 1.2 -12.5 -0.9 86 0.9 NW 61 96 33 52 - - 0.0
24/01:00pm 1.0 -10.6 -0.9 87 0.8 NW 50 80 27 43 - - 0.0
24/12:30pm 0.9 -12.6 -2.0 81 1.2 NW 59 85 32 46 - - 0.0
24/12:00pm 0.6 -11.9 -1.5 86 0.9 NW 54 87 29 47 - - 0.0
24/11:30am 0.6 -12.8 -1.6 85 0.9 NW 59 89 32 48 - - 0.0
24/11:15am 0.3 -12.7 -1.3 89 0.7 NW 57 98 31 53 - - 0.0
24/11:09am 0.7 -12.4 -2.2 81 1.2 NW 57 85 31 46 - - 0.0
24/11:06am 0.2 -13.9 -1.4 89 0.7 NW 63 107 34 58 - - 0.0
24/11:00am 0.5 -15.0 -1.6 86 0.9 NW 70 117 38 63 - - 0.0
24/10:56am 0.4 -14.6 -2.0 84 1.0 NW 67 117 36 63 - - 0.0
24/10:30am 0.1 -13.7 -1.5 89 0.6 NW 61 91 33 49 - - 0.0
24/10:17am 0.5 -14.4 -1.6 86 0.9 NW 67 91 36 49 - - 0.0
24/10:00am 0.7 -16.4 -2.3 80 1.2 NW 78 102 42 55 - - 0.0
24/09:30am 0.4 -15.2 -2.5 81 1.2 NW 70 91 38 49 - - 0.0
24/09:26am 0.2 -14.8 -2.0 85 0.9 NW 67 89 36 48 - - 0.0
24/09:00am 0.2 -12.0 -2.3 83 1.0 NW 52 74 28 40 - - 0.0
24/08:34am 0.1 -12.4 -1.5 89 0.6 NNW 54 72 29 39 - - 0.0
24/08:30am 0.4 -13.1 -2.1 83 1.0 NNW 59 74 32 40 - - 0.0
24/08:00am -0.1 -12.6 -1.7 89 0.6 NW 54 76 29 41 - - 0.0
24/07:30am -0.1 -12.5 -1.4 91 0.5 NW 54 78 29 42 - - 0.0
24/07:06am 0.2 -12.3 -1.5 88 0.7 NNW 54 72 29 39 - - 0.0
24/07:00am 0.1 -12.9 -1.3 90 0.6 NNW 57 74 31 40 - - 0.0
24/06:30am 0.4 -12.1 -2.1 83 1.0 NNW 54 67 29 36 - - 0.0
24/06:00am 0.4 -11.3 -1.2 89 0.7 NNW 50 69 27 37 - - 0.0
24/05:55am 0.5 -11.1 -1.1 89 0.7 NNW 50 69 27 37 - - 0.0
24/05:30am 0.6 -10.6 -0.8 90 0.6 NNW 48 63 26 34 - - 0.0
24/05:00am 1.0 -9.3 -0.8 88 0.7 NNW 43 59 23 32 - - 0.0
24/04:30am 1.2 -9.9 -0.3 90 0.6 NNW 48 57 26 31 - - 0.0
24/04:00am 1.9 -10.0 -0.2 86 0.9 NNW 52 63 28 34 - - 0.0
24/03:30am 2.3 -8.8 -0.1 84 1.0 NNW 48 61 26 33 - - 0.0
24/03:00am 3.5 -7.5 -2.0 67 2.2 NNW 46 61 25 33 - - 0.0
24/02:41am 4.5 -5.2 -2.1 62 2.7 NNW 39 59 21 32 - - 0.0
24/02:30am 4.2 -6.7 -1.6 66 2.4 NNW 46 59 25 32 - - 0.0
24/02:13am 4.4 -5.4 -2.9 59 2.9 NNW 39 57 21 31 - - 0.0
24/02:00am 4.2 -5.9 -2.4 62 2.7 NNW 41 50 22 27 - - 0.0
24/01:30am 4.4 -4.7 -0.6 70 2.1 NNW 37 50 20 27 - - 0.0
24/01:00am 5.3 -4.6 1.4 76 1.8 NNW 43 56 23 30 - - 0.0
24/12:30am 5.7 -4.3 2.4 79 1.5 NNW 44 57 24 31 - - 0.0
24/12:00am 6.9 -3.3 3.0 76 1.8 NNW 46 57 25 31 - - 0.0
 
Date/Time
EST
Temp
°C
App
Temp
°C
Dew
Point
°C
Rel
Hum
%
Delta-T
°C
Wind Press
QNH
hPa
Press
MSL
hPa
Rain since
9am
mm
Dir  Spd
km/h
Gust
km/h
Spd
kts
Gust
kts
23/11:36pm 7.7 -3.0 2.4 69 2.5 NNW 48 67 26 36 - - 0.0
23/11:30pm 8.1 -2.2 2.4 67 2.7 NNW 46 61 25 33 - - 0.0
23/11:01pm 8.4 -1.4 2.4 66 2.8 NNW 43 63 23 34 - - 0.0
23/11:00pm 8.5 -0.9 2.5 66 2.8 NNW 41 56 22 30 - - 0.0
23/10:33pm 9.5 1.6 2.4 61 3.4 NNW 33 52 18 28 - - 0.0
23/10:30pm 9.3 1.4 2.4 62 3.3 NNW 33 48 18 26 - - 0.0
23/10:00pm 9.5 1.5 1.9 59 3.6 NW 33 52 18 28 - - 0.0
23/09:31pm 10.4 0.9 2.0 56 4.0 NW 41 59 22 32 - - 0.0
23/09:30pm 10.5 0.6 1.9 55 4.1 NW 43 59 23 32 - - 0.0
23/09:00pm 11.0 1.8 1.3 51 4.6 NW 39 61 21 33 - - 0.0
23/08:41pm 10.3 0.6 0.6 51 4.5 NNW 41 59 22 32 - - 0.0
23/08:30pm 10.4 0.3 0.4 50 4.6 NNW 43 57 23 31 - - 0.0
23/08:00pm 11.5 -0.7 0.3 46 5.2 NNW 54 67 29 36 - - 0.0
23/07:46pm 11.8 -0.4 0.3 45 5.3 NNW 54 74 29 40 - - 0.0
23/07:33pm 10.6 -3.3 0.3 49 4.7 NNW 63 96 34 52 - - 0.0
23/07:30pm 11.8 -2.4 0.6 46 5.2 NNW 65 96 35 52 - - 0.0
23/07:28pm 12.1 -2.2 0.5 45 5.4 NNW 65 96 35 52 - - 0.0
23/07:19pm 11.3 -1.4 0.7 48 4.9 NNW 57 89 31 48 - - 0.0
23/07:17pm 10.9 -1.8 0.6 49 4.8 NNW 57 80 31 43 - - 0.0
23/07:00pm 12.0 -4.3 0.8 46 5.3 NNW 76 109 41 59 - - 0.0
23/06:58pm 11.4 -4.9 0.8 48 5.0 NNW 76 109 41 59 - - 0.0
23/06:54pm 10.4 -5.9 0.7 51 4.5 NNW 76 109 41 59 - - 0.0
23/06:30pm 10.7 -3.9 1.0 51 4.5 N 67 98 36 53 - - 0.0
23/06:29pm 10.7 -3.9 1.0 51 4.5 N 67 98 36 53 - - 0.0
23/06:20pm 10.5 -0.5 0.5 50 4.6 N 48 76 26 41 - - 0.0
23/06:19pm 10.9 0.3 0.6 49 4.8 N 46 69 25 37 - - 0.0
23/06:00pm 10.9 -0.7 1.4 52 4.5 NW 52 82 28 44 - - 0.0
23/05:58pm 10.3 -3.4 1.4 54 4.2 NW 63 107 34 58 - - 0.0
23/05:54pm 10.8 -4.3 1.4 52 4.4 NNW 70 107 38 58 - - 0.0
23/05:53pm 10.6 -4.8 1.4 53 4.3 NNW 72 107 39 58 - - 0.0
23/05:49pm 10.4 -3.7 1.8 55 4.1 NNW 65 107 35 58 - - 0.0
23/05:33pm 10.3 -1.0 0.9 52 4.4 NNW 50 74 27 40 - - 0.0
23/05:30pm 9.7 -0.9 0.6 53 4.2 NNW 46 57 25 31 - - 0.0
23/05:01pm 9.7 -2.0 0.9 54 4.1 NNW 52 72 28 39 - - 0.0
23/05:00pm 9.1 -2.7 0.6 55 3.9 NNW 52 65 28 35 - - 0.0
23/04:30pm 10.0 -1.8 0.3 51 4.4 NNW 52 72 28 39 - - 0.0
23/04:26pm 9.8 -1.6 0.4 52 4.3 NNW 50 72 27 39 - - 0.0
23/04:00pm 10.1 -0.9 0.7 52 4.3 NNW 48 59 26 32 - - 0.0

Other Formats:

Comma delimited format used in spreadsheet applications
http://www.bom.gov.au/fwo/IDN60801/IDN60801.95909.axf

JavaScript Object Notation format (JSON) in row-major order
http://www.bom.gov.au/fwo/IDN60801/IDN60801.95909.json